Time;durP1;ratioP1;P1;durP2;ratioP2;P2;SDS_P1;SDS_P2;PMS_P1;PMS_P2;Temp;Humidity;BMP_temperature;BMP_pressure;BME280_temperature;BME280_humidity;BME280_pressure;Samples;Min_cycle;Max_cycle;Signal;HPM_P1;HPM_P2
2022/02/20 00:01:17;;;;;;;8.78;3.42;;;;;;;4.21;64.73;100247.45;1720755;82;26515;-79
2022/02/20 00:03:43;;;;;;;8.48;3.12;;;;;;;4.20;64.71;100249.75;1726477;81;26149;-79
2022/02/20 00:06:10;;;;;;;11.57;4.25;;;;;;;4.16;64.56;100236.47;1710524;82;25970;-80
2022/02/20 00:08:36;;;;;;;11.22;3.60;;;;;;;4.14;64.71;100234.46;1725838;81;26947;-79
2022/02/20 00:11:03;;;;;;;13.85;4.08;;;;;;;4.12;64.84;100240.90;1720267;82;25822;-79
2022/02/20 00:13:30;;;;;;;8.70;3.60;;;;;;;4.09;64.82;100235.89;1726551;81;25796;-79
2022/02/20 00:15:56;;;;;;;16.77;4.90;;;;;;;4.09;64.96;100233.24;1718890;82;26475;-79
2022/02/20 00:18:23;;;;;;;9.88;3.85;;;;;;;4.07;64.50;100238.70;1721527;82;25881;-80
2022/02/20 00:20:49;;;;;;;14.28;3.83;;;;;;;4.07;64.79;100237.87;1719029;82;27436;-79
2022/02/20 00:23:16;;;;;;;10.93;3.47;;;;;;;4.03;64.56;100229.41;1718523;81;25929;-79
2022/02/20 00:25:44;;;;;;;10.58;3.95;;;;;;;4.00;64.80;100231.02;1715797;82;25866;-79
2022/02/20 00:28:12;;;;;;;11.55;3.72;;;;;;;3.98;65.02;100226.89;1718938;81;25822;-78
2022/02/20 00:30:41;;;;;;;9.83;3.75;;;;;;;3.97;64.92;100219.42;1724354;81;25927;-78
2022/02/20 00:33:07;;;;;;;8.35;2.92;;;;;;;3.96;64.93;100219.07;1722506;82;27531;-79
2022/02/20 00:35:34;;;;;;;11.48;3.45;;;;;;;3.95;64.74;100212.61;1735765;81;25965;-80
2022/02/20 00:38:04;;;;;;;12.58;4.12;;;;;;;3.91;64.81;100222.17;1727765;81;25340;-78
2022/02/20 00:40:31;;;;;;;12.53;4.17;;;;;;;3.87;64.80;100228.77;1722708;81;26297;-79
2022/02/20 00:42:58;;;;;;;13.70;5.20;;;;;;;3.86;64.75;100226.28;1734039;81;25939;-80
2022/02/20 00:45:26;;;;;;;10.32;4.15;;;;;;;3.83;64.86;100224.77;1736711;81;28148;-79
2022/02/20 00:47:53;;;;;;;8.40;3.77;;;;;;;3.80;65.03;100215.81;1723819;81;26044;-79
2022/02/20 00:50:21;;;;;;;11.93;4.50;;;;;;;3.78;65.10;100216.95;1717921;82;25849;-78
2022/02/20 00:52:48;;;;;;;11.20;3.85;;;;;;;3.73;65.08;100217.89;1713527;82;25784;-78
2022/02/20 00:55:14;;;;;;;11.55;4.10;;;;;;;3.70;65.18;100220.86;1721776;81;26018;-79
2022/02/20 00:57:40;;;;;;;18.35;4.35;;;;;;;3.65;65.16;100223.96;1715591;82;27625;-78
2022/02/20 01:00:10;;;;;;;12.90;4.97;;;;;;;3.62;65.24;100227.38;1727933;81;25942;-78
2022/02/20 01:02:38;;;;;;;10.85;4.80;;;;;;;3.60;65.14;100225.38;1714825;81;25769;-78
2022/02/20 01:05:06;;;;;;;12.90;3.95;;;;;;;3.56;65.24;100218.23;1727698;81;25732;-80
2022/02/20 01:07:33;;;;;;;11.33;4.67;;;;;;;3.55;65.41;100220.53;1725847;81;25840;-80
2022/02/20 01:10:00;;;;;;;12.65;5.00;;;;;;;3.52;65.46;100214.72;1718329;82;28263;-78
2022/02/20 01:12:28;;;;;;;16.42;4.50;;;;;;;3.50;65.50;100216.20;1707723;83;25966;-79
2022/02/20 01:14:54;;;;;;;11.78;3.95;;;;;;;3.47;65.63;100212.52;1709540;83;26636;-79
2022/02/20 01:17:21;;;;;;;10.20;4.28;;;;;;;3.45;65.71;100211.84;1683885;84;26218;-79
2022/02/20 01:19:48;;;;;;;8.60;4.00;;;;;;;3.43;65.74;100204.54;1665252;85;25875;-79
2022/02/20 01:22:14;;;;;;;11.18;3.00;;;;;;;3.40;65.67;100210.13;1684290;84;27467;-78
2022/02/20 01:24:41;;;;;;;14.63;4.12;;;;;;;3.37;65.71;100210.92;1659383;85;25786;-78
2022/02/20 01:27:07;;;;;;;8.93;4.42;;;;;;;3.34;65.70;100215.19;1664192;84;25887;-78
2022/02/20 01:29:33;;;;;;;11.20;3.25;;;;;;;3.30;65.72;100214.66;1664031;85;26506;-79
2022/02/20 01:31:59;;;;;;;14.60;3.77;;;;;;;3.28;65.86;100218.44;1664609;85;26292;-78
2022/02/20 01:34:26;;;;;;;11.00;3.37;;;;;;;3.25;65.85;100208.97;1665229;85;27712;-78
2022/02/20 01:36:55;;;;;;;12.37;4.22;;;;;;;3.22;65.93;100200.51;1684202;83;25862;-79
2022/02/20 01:39:23;;;;;;;9.28;3.22;;;;;;;3.17;66.12;100205.41;1660308;85;25887;-80
2022/02/20 01:41:52;;;;;;;10.95;3.35;;;;;;;3.15;66.27;100197.63;1684371;84;26087;-79
2022/02/20 01:44:19;;;;;;;10.55;3.65;;;;;;;3.16;66.28;100192.69;1664354;85;25941;-79
2022/02/20 01:46:47;;;;;;;16.65;4.42;;;;;;;3.16;66.52;100183.91;1664520;85;27532;-79
2022/02/20 01:49:14;;;;;;;11.85;3.42;;;;;;;3.14;66.53;100187.52;1684107;84;25948;-79
2022/02/20 01:51:42;;;;;;;14.23;4.25;;;;;;;3.13;66.62;100176.61;1651762;85;25815;-78
2022/02/20 01:54:10;;;;;;;13.18;3.75;;;;;;;3.16;66.77;100177.30;1673158;84;25885;-79
2022/02/20 01:56:38;;;;;;;9.65;4.00;;;;;;;3.16;66.71;100164.91;1676043;84;25911;-79
2022/02/20 01:59:17;;;;;;;15.85;3.87;;;;;;;3.16;66.82;100168.88;1609330;88;28334;-78
2022/02/20 02:01:45;;;;;;;10.68;4.45;;;;;;;3.21;66.96;100169.23;1665068;84;25830;-78
2022/02/20 02:04:13;;;;;;;6.95;3.72;;;;;;;3.22;66.91;100164.30;1681323;84;26622;-79
2022/02/20 02:06:48;;;;;;;13.00;4.20;;;;;;;3.24;66.94;100164.14;1677967;85;25876;-78
2022/02/20 02:09:18;;;;;;;13.38;3.42;;;;;;;3.25;67.04;100159.20;1651357;84;25765;-80
2022/02/20 02:11:55;;;;;;;8.65;3.62;;;;;;;3.25;67.13;100152.59;1660553;86;27485;-78
2022/02/20 02:14:56;;;;;;;12.03;3.95;;;;;;;3.26;67.23;100147.61;1636877;86;26469;-80
2022/02/20 02:17:41;;;;;;;10.85;3.47;;;;;;;3.24;67.14;100135.86;1634271;86;25769;-78
2022/02/20 02:20:28;;;;;;;9.98;3.10;;;;;;;3.23;67.27;100132.86;1636409;86;26047;-78
2022/02/20 02:23:02;;;;;;;17.02;3.67;;;;;;;3.19;67.26;100122.24;1641356;86;25871;-78
2022/02/20 02:25:38;;;;;;;9.55;3.08;;;;;;;3.19;67.23;100116.95;1638293;86;27555;-79
2022/02/20 02:28:18;;;;;;;8.45;3.50;;;;;;;3.17;67.12;100108.81;1618998;86;26293;-78
2022/02/20 02:30:48;;;;;;;8.98;3.20;;;;;;;3.15;67.19;100105.00;1635673;86;25417;-78
2022/02/20 02:33:32;;;;;;;9.33;3.12;;;;;;;3.13;67.13;100103.00;1640136;86;26533;-78
2022/02/20 02:36:02;;;;;;;7.78;3.80;;;;;;;3.10;67.17;100101.48;1649352;86;25951;-80
2022/02/20 02:38:29;;;;;;;8.00;3.40;;;;;;;3.04;67.27;100092.84;1636066;86;28278;-79
2022/02/20 02:41:01;;;;;;;10.35;3.55;;;;;;;3.02;67.43;100096.61;1634754;86;26092;-80
2022/02/20 02:43:28;;;;;;;12.43;4.42;;;;;;;3.00;67.58;100087.52;1633256;86;25767;-79
2022/02/20 02:45:55;;;;;;;11.25;4.05;;;;;;;3.00;67.70;100090.64;1636357;86;25851;-78
2022/02/20 02:48:22;;;;;;;9.70;3.83;;;;;;;2.99;67.56;100089.80;1636213;86;25350;-78
2022/02/20 02:50:50;;;;;;;11.10;4.22;;;;;;;3.00;67.60;100098.09;1632701;86;27470;-78
2022/02/20 02:53:18;;;;;;;12.07;4.20;;;;;;;2.99;67.56;100094.28;1636738;86;25867;-79
2022/02/20 02:55:46;;;;;;;13.53;3.65;;;;;;;2.96;67.57;100089.28;1630843;86;25933;-79
2022/02/20 02:58:20;;;;;;;10.63;3.85;;;;;;;2.92;67.55;100082.15;1636326;86;25876;-79
2022/02/20 03:00:48;;;;;;;10.53;3.95;;;;;;;2.91;67.59;100083.59;1640110;86;25808;-78
2022/02/20 03:03:15;;;;;;;12.50;4.40;;;;;;;2.90;67.67;100077.50;1632463;86;27467;-80
2022/02/20 03:05:43;;;;;;;10.68;4.00;;;;;;;2.91;67.78;100081.80;1632245;86;25912;-78
2022/02/20 03:08:10;;;;;;;9.63;4.45;;;;;;;2.90;67.81;100072.70;1632130;86;26616;-79
2022/02/20 03:10:36;;;;;;;11.48;4.03;;;;;;;2.90;67.88;100072.21;1657225;84;26418;-78
2022/02/20 03:13:04;;;;;;;11.00;4.33;;;;;;;2.91;67.97;100070.38;1675906;84;25839;-79
2022/02/20 03:15:32;;;;;;;12.30;4.35;;;;;;;2.88;67.84;100068.89;1673682;84;28482;-79
2022/02/20 03:17:59;;;;;;;17.42;6.12;;;;;;;2.88;67.87;100064.92;1678141;84;26618;-78
2022/02/20 03:20:25;;;;;;;15.38;4.85;;;;;;;2.89;67.86;100059.95;1673565;84;25766;-78
2022/02/20 03:22:52;;;;;;;12.13;4.40;;;;;;;2.90;67.94;100053.70;1682881;84;25891;-79
2022/02/20 03:25:18;;;;;;;14.33;5.00;;;;;;;2.89;67.92;100052.02;1675785;84;25881;-78
2022/02/20 03:27:45;;;;;;;15.03;4.55;;;;;;;2.89;67.99;100045.89;1671874;83;27456;-79
2022/02/20 03:30:14;;;;;;;10.40;4.72;;;;;;;2.88;67.95;100041.59;1673791;84;25840;-79
2022/02/20 03:32:42;;;;;;;11.35;5.35;;;;;;;2.88;67.98;100037.63;1675943;84;25866;-79
2022/02/20 03:35:09;;;;;;;14.28;4.90;;;;;;;2.87;67.82;100038.59;1677580;84;26563;-78
2022/02/20 03:37:35;;;;;;;14.43;4.30;;;;;;;2.83;67.82;100039.41;1674635;84;25886;-79
2022/02/20 03:40:02;;;;;;;12.63;4.08;;;;;;;2.82;67.81;100036.41;1659577;86;27739;-80
2022/02/20 03:42:29;;;;;;;13.10;4.85;;;;;;;2.80;67.81;100025.14;1687325;84;25908;-77
2022/02/20 03:44:59;;;;;;;;;;;;;;;2.80;67.78;100019.05;1686379;84;25907;-78
2022/02/20 03:47:26;;;;;;;13.05;3.92;;;;;;;2.77;67.92;100013.56;1687092;83;25867;-78
2022/02/20 03:49:54;;;;;;;12.60;5.03;;;;;;;2.74;68.01;100013.02;1686026;84;26019;-79
2022/02/20 03:52:30;;;;;;;9.48;3.98;;;;;;;2.72;68.04;100010.53;1688532;83;27782;-78
2022/02/20 03:54:56;;;;;;;10.48;4.47;;;;;;;2.71;68.16;99998.31;1664845;85;25773;-79
2022/02/20 03:57:23;;;;;;;15.72;4.80;;;;;;;2.70;68.03;99993.15;1668394;84;26050;-78
2022/02/20 03:59:54;;;;;;;16.23;5.10;;;;;;;2.69;68.19;99993.66;1641519;85;26043;-79
2022/02/20 04:02:22;;;;;;;11.97;3.83;;;;;;;2.69;68.12;99990.19;1670756;85;26451;-79
2022/02/20 04:04:48;;;;;;;11.78;4.12;;;;;;;2.70;68.24;99985.22;1682095;84;27464;-79
2022/02/20 04:07:17;;;;;;;14.55;4.58;;;;;;;2.70;68.19;99982.57;1669853;84;26430;-79
2022/02/20 04:09:45;;;;;;;11.80;4.70;;;;;;;2.70;68.34;99979.92;1688992;82;25854;-78
2022/02/20 04:12:13;;;;;;;9.13;3.83;;;;;;;2.69;68.24;99979.13;1687941;83;25794;-79
2022/02/20 04:14:39;;;;;;;11.63;4.90;;;;;;;2.69;68.18;99975.64;1647740;86;25952;-79
2022/02/20 04:17:09;;;;;;;12.47;4.70;;;;;;;2.70;68.17;99968.87;1680634;83;27455;-79
2022/02/20 04:19:40;;;;;;;12.63;5.22;;;;;;;2.71;68.14;99969.22;1684416;84;25776;-78
2022/02/20 04:22:06;;;;;;;16.85;4.28;;;;;;;2.69;68.14;99965.90;1685244;83;26056;-79
2022/02/20 04:24:32;;;;;;;6.47;3.27;;;;;;;2.69;68.20;99967.70;1693028;83;26225;-80
2022/02/20 04:26:59;;;;;;;11.53;3.98;;;;;;;2.70;67.99;99968.03;1690643;83;25746;-78
2022/02/20 04:29:36;;;;;;;12.70;4.33;;;;;;;2.71;68.08;99967.06;1679614;84;27539;-80
2022/02/20 04:32:04;;;;;;;7.53;3.80;;;;;;;2.70;68.05;99959.61;1658699;85;25775;-78
2022/02/20 04:34:30;;;;;;;10.08;3.80;;;;;;;2.70;67.98;99952.16;1631488;85;25895;-79
2022/02/20 04:36:57;;;;;;;14.18;4.47;;;;;;;2.69;68.14;99952.68;1662335;85;25960;-81
2022/02/20 04:39:23;;;;;;;15.50;4.22;;;;;;;2.71;68.16;99946.75;1661900;86;25902;-79
2022/02/20 04:41:49;;;;;;;15.35;5.20;;;;;;;2.72;68.10;99942.27;1664633;85;27502;-77
2022/02/20 04:44:18;;;;;;;15.72;4.28;;;;;;;2.73;68.18;99950.55;1667470;85;26561;-78
2022/02/20 04:46:44;;;;;;;11.70;4.67;;;;;;;2.72;68.17;99944.91;1664024;85;25829;-78
2022/02/20 04:49:10;;;;;;;13.45;4.40;;;;;;;2.72;68.12;99940.45;1654854;83;25766;-78
2022/02/20 04:51:55;;;;;;;9.45;4.15;;;;;;;2.73;68.19;99942.13;1695365;83;25870;-79
2022/02/20 04:54:35;;;;;;;17.70;5.17;;;;;;;2.73;68.21;99931.55;1691332;83;27550;-79
2022/02/20 04:57:02;;;;;;;13.03;4.37;;;;;;;2.72;67.95;99931.20;1685590;83;25987;-79
2022/02/20 04:59:28;;;;;;;13.48;5.67;;;;;;;2.73;68.12;99929.39;1687864;83;25767;-78
2022/02/20 05:01:55;;;;;;;17.27;5.35;;;;;;;2.75;68.20;99924.78;1651671;84;25907;-78
2022/02/20 05:04:23;;;;;;;13.05;4.37;;;;;;;2.78;68.21;99929.78;1651252;86;25885;-79
2022/02/20 05:06:52;;;;;;;13.00;4.60;;;;;;;2.79;68.17;99928.30;1687059;84;27478;-79
2022/02/20 05:09:20;;;;;;;14.30;4.47;;;;;;;2.81;68.16;99917.55;1688457;84;26069;-79
2022/02/20 05:11:54;;;;;;;13.13;4.40;;;;;;;2.84;68.09;99910.64;1663248;85;25872;-78
2022/02/20 05:14:20;;;;;;;19.07;4.95;;;;;;;2.85;68.12;99905.67;1668503;85;25759;-79
2022/02/20 05:16:47;;;;;;;9.88;3.87;;;;;;;2.87;68.03;99901.90;1661347;83;25937;-79
2022/02/20 05:19:16;;;;;;;11.43;3.90;;;;;;;2.89;68.04;99900.41;1659257;85;27091;-79
2022/02/20 05:21:44;;;;;;;12.53;4.65;;;;;;;2.91;68.06;99901.92;1660335;85;26467;-79
2022/02/20 05:24:10;;;;;;;9.00;4.80;;;;;;;2.91;68.02;99897.95;1663835;84;25849;-79
2022/02/20 05:26:38;;;;;;;15.90;5.30;;;;;;;2.93;68.15;99892.53;1672210;84;25781;-78
2022/02/20 05:29:05;;;;;;;14.15;4.42;;;;;;;2.95;67.92;99897.17;1660217;85;26560;-79
2022/02/20 05:31:31;;;;;;;12.73;4.87;;;;;;;2.94;67.78;99899.47;1673347;85;27534;-78
2022/02/20 05:33:59;;;;;;;15.08;5.30;;;;;;;2.94;67.96;99908.73;1668772;85;26596;-78
2022/02/20 05:36:25;;;;;;;12.58;4.47;;;;;;;2.95;67.92;99905.11;1654461;85;25837;-79
2022/02/20 05:38:54;;;;;;;18.77;5.53;;;;;;;2.96;67.96;99904.95;1670430;84;25953;-78
2022/02/20 05:41:20;;;;;;;11.60;4.90;;;;;;;2.95;67.76;99906.43;1664201;84;26039;-78
2022/02/20 05:43:48;;;;;;;15.48;5.00;;;;;;;2.96;67.85;99907.59;1670434;84;28805;-79
2022/02/20 05:46:15;;;;;;;14.78;5.03;;;;;;;2.97;67.90;99909.75;1698491;83;25820;-79
2022/02/20 05:48:42;;;;;;;14.73;4.95;;;;;;;2.99;67.77;99907.78;1691855;83;25845;-78
2022/02/20 05:51:10;;;;;;;12.70;5.15;;;;;;;2.99;67.51;99909.10;1681151;84;25779;-78
2022/02/20 05:53:41;;;;;;;12.10;4.55;;;;;;;3.00;67.60;99906.78;1678728;84;25953;-79
2022/02/20 05:56:09;;;;;;;13.40;4.95;;;;;;;3.00;67.63;99902.80;1674322;85;27482;-78
2022/02/20 05:58:46;;;;;;;11.15;4.03;;;;;;;2.99;67.60;99899.33;1692002;83;25798;-78
2022/02/20 06:01:13;;;;;;;13.10;5.08;;;;;;;3.03;67.79;99900.70;1658834;84;25800;-78
2022/02/20 06:03:42;;;;;;;13.30;5.15;;;;;;;3.04;67.63;99895.73;1686509;82;25801;-80
2022/02/20 06:06:16;;;;;;;15.85;5.25;;;;;;;3.06;67.35;99888.95;1681264;83;25812;-78
2022/02/20 06:08:45;;;;;;;15.08;4.53;;;;;;;3.05;67.52;99877.56;1656498;85;27480;-78
2022/02/20 06:11:15;;;;;;;;;;;;;;;3.08;67.50;99880.36;1690233;84;26011;-79
2022/02/20 06:13:53;;;;;;;11.90;5.10;;;;;;;3.11;67.70;99874.77;1671502;84;26478;-78
2022/02/20 06:16:27;;;;;;;13.22;4.10;;;;;;;3.11;67.65;99872.13;1658516;83;26312;-80
2022/02/20 06:19:00;;;;;;;12.07;5.20;;;;;;;3.13;67.78;99861.73;1670887;84;26042;-78
2022/02/20 06:21:29;;;;;;;13.25;5.47;;;;;;;3.15;67.79;99861.56;1693220;83;28311;-79
2022/02/20 06:23:57;;;;;;;13.53;4.90;;;;;;;3.16;67.73;99865.88;1699867;83;26001;-79
2022/02/20 06:26:31;;;;;;;15.03;4.47;;;;;;;3.16;67.89;99853.97;1688652;83;25887;-79
2022/02/20 06:28:57;;;;;;;17.95;5.53;;;;;;;3.20;68.17;99855.31;1670837;84;25852;-80
2022/02/20 06:31:24;;;;;;;10.82;5.03;;;;;;;3.21;68.17;99849.02;1702297;83;25880;-78
2022/02/20 06:33:52;;;;;;;11.43;4.58;;;;;;;3.23;68.17;99843.59;1685555;83;27459;-79
2022/02/20 06:36:20;;;;;;;14.30;5.33;;;;;;;3.24;68.27;99835.97;1647619;85;25887;-79
2022/02/20 06:38:48;;;;;;;13.40;4.40;;;;;;;3.26;68.44;99829.53;1657625;85;25990;-78
2022/02/20 06:41:14;;;;;;;8.98;3.92;;;;;;;3.29;68.58;99841.14;1692317;83;25755;-79
2022/02/20 06:43:42;;;;;;;11.18;4.42;;;;;;;3.33;68.72;99847.77;1688539;84;25794;-79
2022/02/20 06:46:13;;;;;;;;;;;;;;;3.32;68.75;99852.72;1644307;84;27489;-79
2022/02/20 06:48:50;;;;;;;13.78;5.40;;;;;;;3.33;68.95;99849.58;1683477;84;26487;-78
2022/02/20 06:51:21;;;;;;;12.80;4.90;;;;;;;3.33;69.16;99850.91;1684243;83;25918;-79
2022/02/20 06:54:04;;;;;;;9.55;4.40;;;;;;;3.36;69.34;99846.11;1681473;83;26546;-78
2022/02/20 06:56:33;;;;;;;7.60;4.75;;;;;;;3.38;69.43;99845.45;1666773;85;26495;-80
2022/02/20 06:58:59;;;;;;;17.30;4.55;;;;;;;3.41;69.61;99844.31;1671412;85;27524;-79
2022/02/20 07:01:25;;;;;;;11.95;4.15;;;;;;;3.46;69.70;99840.70;1670166;84;25785;-78
2022/02/20 07:03:52;;;;;;;9.58;4.55;;;;;;;3.50;69.92;99844.20;1686780;83;25776;-79
2022/02/20 07:06:18;;;;;;;15.05;4.70;;;;;;;3.57;70.18;99837.77;1680523;84;25919;-79
2022/02/20 07:08:44;;;;;;;10.00;4.30;;;;;;;3.62;70.31;99842.07;1681919;84;26585;-79
2022/02/20 07:11:10;;;;;;;13.35;4.90;;;;;;;3.68;70.35;99846.72;1694485;83;28414;-79
2022/02/20 07:13:37;;;;;;;10.85;5.33;;;;;;;3.73;70.35;99836.48;1658402;85;25924;-78
2022/02/20 07:16:03;;;;;;;12.90;5.05;;;;;;;3.77;70.41;99834.67;1653035;85;25287;-78
2022/02/20 07:18:30;;;;;;;13.40;4.60;;;;;;;3.81;70.39;99847.09;1682701;84;25740;-79
2022/02/20 07:20:56;;;;;;;10.78;4.53;;;;;;;3.86;70.31;99840.82;1676576;84;25936;-79
2022/02/20 07:23:23;;;;;;;12.20;5.08;;;;;;;3.88;70.26;99834.86;1655522;84;27623;-79
2022/02/20 07:25:49;;;;;;;11.40;5.30;;;;;;;3.93;70.13;99838.67;1687410;83;25882;-78
2022/02/20 07:28:15;;;;;;;12.05;5.08;;;;;;;3.98;69.69;99841.35;1700981;83;25595;-78
2022/02/20 07:30:41;;;;;;;18.07;5.67;;;;;;;4.00;69.70;99835.39;1695379;83;25869;-78
2022/02/20 07:33:10;;;;;;;14.55;6.03;;;;;;;4.03;69.40;99844.32;1692924;83;25940;-79
2022/02/20 07:35:36;;;;;;;14.73;6.33;;;;;;;4.02;68.77;99840.84;1691466;83;27422;-78
2022/02/20 07:38:03;;;;;;;16.42;7.12;;;;;;;4.05;68.81;99839.69;1687482;84;25472;-79
2022/02/20 07:40:29;;;;;;;14.70;6.47;;;;;;;4.08;68.96;99842.02;1667458;85;26012;-78
2022/02/20 07:42:57;;;;;;;18.10;7.35;;;;;;;4.12;68.53;99846.84;1689491;83;25800;-78
2022/02/20 07:45:25;;;;;;;16.07;5.87;;;;;;;4.15;68.47;99845.16;1658484;84;25931;-79
2022/02/20 07:47:56;;;;;;;17.27;5.95;;;;;;;4.19;67.96;99837.73;1700394;83;27469;-79
2022/02/20 07:50:26;;;;;;;16.48;7.22;;;;;;;4.19;67.87;99835.89;1694955;83;25837;-78
2022/02/20 07:52:52;;;;;;;12.20;6.33;;;;;;;4.23;67.87;99839.89;1695293;83;25902;-79
2022/02/20 07:55:19;;;;;;;14.80;5.28;;;;;;;4.30;68.04;99824.16;1696257;83;25755;-79
2022/02/20 07:57:46;;;;;;;12.25;5.25;;;;;;;4.32;67.45;99819.52;1701649;83;25776;-79
2022/02/20 08:00:16;;;;;;;17.42;5.47;;;;;;;4.32;67.86;99813.70;1685529;83;27517;-79
2022/02/20 08:02:44;;;;;;;11.27;5.30;;;;;;;4.35;67.28;99814.70;1696244;83;25921;-78
2022/02/20 08:05:10;;;;;;;15.75;5.37;;;;;;;4.40;67.38;99812.88;1696261;83;25863;-78
2022/02/20 08:07:36;;;;;;;13.38;5.97;;;;;;;4.45;67.54;99814.03;1666782;84;25845;-79
2022/02/20 08:10:04;;;;;;;19.15;6.00;;;;;;;4.49;67.52;99806.06;1679379;84;25926;-78
2022/02/20 08:12:31;;;;;;;15.75;6.80;;;;;;;4.58;67.52;99805.07;1658359;85;27478;-78
2022/02/20 08:14:57;;;;;;;22.90;7.35;;;;;;;4.66;66.87;99797.61;1672227;84;26190;-78
2022/02/20 08:17:24;;;;;;;12.75;6.12;;;;;;;4.71;67.16;99800.57;1670651;84;26158;-78
2022/02/20 08:19:51;;;;;;;16.67;6.25;;;;;;;4.77;66.73;99797.77;1671576;84;25874;-79
2022/02/20 08:22:18;;;;;;;17.50;7.95;;;;;;;4.81;66.89;99795.93;1672050;84;26562;-78
2022/02/20 08:24:45;;;;;;;18.27;6.90;;;;;;;4.87;67.01;99795.73;1672501;84;27657;-78
2022/02/20 08:27:13;;;;;;;18.30;6.60;;;;;;;4.94;66.90;99787.44;1674738;84;26657;-79
2022/02/20 08:29:41;;;;;;;20.50;6.08;;;;;;;4.99;66.53;99790.38;1661627;84;25811;-79
2022/02/20 08:32:08;;;;;;;13.25;5.45;;;;;;;5.00;65.58;99789.40;1670599;84;26317;-78
2022/02/20 08:34:36;;;;;;;24.30;7.75;;;;;;;5.01;66.02;99789.22;1656938;85;26398;-78
2022/02/20 08:37:05;;;;;;;16.42;6.80;;;;;;;5.03;65.54;99785.89;1663447;84;27553;-78
2022/02/20 08:39:31;;;;;;;17.02;5.78;;;;;;;5.08;65.55;99790.69;1657757;84;25831;-79
2022/02/20 08:41:58;;;;;;;15.20;6.42;;;;;;;5.11;65.69;99789.03;1670771;84;25770;-80
2022/02/20 08:44:24;;;;;;;15.80;5.37;;;;;;;5.14;65.36;99785.53;1670514;84;26324;-79
2022/02/20 08:46:51;;;;;;;14.40;5.85;;;;;;;5.14;65.51;99787.34;1670368;84;25306;-79
2022/02/20 08:49:19;;;;;;;18.82;5.95;;;;;;;5.15;65.41;99781.05;1664314;84;27124;-79
2022/02/20 08:51:45;;;;;;;15.10;5.62;;;;;;;5.19;65.59;99776.56;1650676;84;25908;-79
2022/02/20 08:54:12;;;;;;;12.00;5.67;;;;;;;5.21;65.48;99770.58;1653616;86;25785;-78
2022/02/20 08:56:38;;;;;;;18.25;6.05;;;;;;;5.26;65.35;99772.19;1650412;86;26208;-79
2022/02/20 08:59:04;;;;;;;16.17;6.35;;;;;;;5.29;65.07;99768.38;1646620;85;25858;-78
2022/02/20 09:01:30;;;;;;;18.30;6.78;;;;;;;5.34;65.33;99767.36;1675132;84;27469;-79
2022/02/20 09:04:03;;;;;;;13.83;5.15;;;;;;;5.38;65.43;99771.32;1646323;86;26164;-78
2022/02/20 09:06:31;;;;;;;14.95;5.42;;;;;;;5.42;64.26;99765.98;1648013;85;26017;-78
2022/02/20 09:08:58;;;;;;;17.25;5.40;;;;;;;5.44;63.96;99759.50;1673057;84;25798;-79
2022/02/20 09:11:25;;;;;;;19.73;6.40;;;;;;;5.49;64.40;99755.80;1646254;85;25975;-82
2022/02/20 09:13:52;;;;;;;20.95;6.67;;;;;;;5.55;64.20;99753.46;1700797;83;27455;-81
2022/02/20 09:16:19;;;;;;;13.05;5.85;;;;;;;5.60;64.53;99759.92;1700351;83;26176;-79
2022/02/20 09:18:45;;;;;;;12.58;5.75;;;;;;;5.63;64.10;99754.73;1676346;85;25925;-80
2022/02/20 09:21:13;;;;;;;15.03;6.10;;;;;;;5.59;62.79;99751.61;1704798;83;26344;-80
2022/02/20 09:43:03;;;;;;;22.25;8.13;;;;;;;5.85;61.65;99755.30;1796532;78;26546;-79
2022/02/20 09:45:30;;;;;;;17.62;7.95;;;;;;;5.69;62.55;99755.38;1759656;80;25897;-78
2022/02/20 09:48:03;;;;;;;12.05;5.55;;;;;;;5.68;63.38;99753.72;1762007;80;27449;-78
2022/02/20 09:50:31;;;;;;;15.53;5.47;;;;;;;5.63;63.43;99756.89;1757782;80;26443;-79
2022/02/20 09:52:57;;;;;;;10.78;5.00;;;;;;;5.53;63.36;99760.78;1759195;80;26079;-79
2022/02/20 09:55:23;;;;;;;13.38;5.87;;;;;;;5.43;63.72;99755.18;1773925;80;25785;-78
2022/02/20 09:57:49;;;;;;;13.98;6.47;;;;;;;5.34;64.37;99754.92;1767133;80;25863;-79
2022/02/20 10:00:17;;;;;;;10.40;5.15;;;;;;;5.31;64.43;99756.58;1762564;80;28226;-80
2022/02/20 10:02:44;;;;;;;12.88;4.62;;;;;;;5.30;65.18;99751.45;1760060;80;25826;-80
2022/02/20 10:05:18;;;;;;;21.48;9.78;;;;;;;5.27;65.37;99754.44;1731416;81;26001;-80
2022/02/20 10:07:46;;;;;;;13.65;6.42;;;;;;;5.24;65.64;99757.43;1707251;83;26134;-79
2022/02/20 10:10:25;;;;;;;13.43;6.50;;;;;;;5.23;66.12;99756.63;1735484;81;25973;-80
2022/02/20 10:13:05;;;;;;;30.88;15.00;;;;;;;5.22;66.64;99762.09;1721682;83;28292;-79
2022/02/20 10:15:35;;;;;;;33.92;16.75;;;;;;;5.19;66.89;99761.12;1726619;81;25281;-79
2022/02/20 10:18:14;;;;;;;14.18;7.30;;;;;;;5.17;67.14;99754.67;1706707;81;25813;-78
2022/02/20 10:21:05;;;;;;;8.65;5.08;;;;;;;5.16;67.60;99758.31;1727601;81;25903;-79
2022/02/20 10:23:53;;;;;;;11.68;7.03;;;;;;;5.15;68.17;99765.13;1698761;83;26034;-78
2022/02/20 10:26:46;;;;;;;7.78;4.50;;;;;;;5.16;68.34;99760.97;1699606;83;27818;-79
2022/02/20 10:29:30;;;;;;;7.53;4.80;;;;;;;5.15;68.97;99761.14;1726640;81;25830;-80
2022/02/20 10:32:00;;;;;;;11.30;6.95;;;;;;;5.10;69.49;99757.67;1725977;81;26487;-79
2022/02/20 10:34:30;;;;;;;10.75;6.05;;;;;;;5.09;69.60;99767.95;1709676;83;25938;-79
2022/02/20 10:37:02;;;;;;;12.68;6.17;;;;;;;5.10;70.15;99762.98;1731501;81;25738;-79
2022/02/20 10:39:34;;;;;;;17.73;9.70;;;;;;;5.10;70.13;99758.17;1711936;83;27438;-80
2022/02/20 10:42:13;;;;;;;13.10;7.00;;;;;;;5.10;70.58;99759.50;1731083;81;26629;-79
2022/02/20 10:45:00;;;;;;;10.08;5.42;;;;;;;5.09;70.61;99757.86;1738456;81;25967;-80
2022/02/20 10:47:32;;;;;;;12.90;7.80;;;;;;;5.05;70.99;99757.35;1733218;81;25834;-79
2022/02/20 10:50:21;;;;;;;9.00;4.87;;;;;;;4.99;71.96;99752.73;1725828;82;26024;-79
2022/02/20 10:53:12;;;;;;;8.75;6.08;;;;;;;4.96;72.01;99762.36;1728248;81;27482;-79
2022/02/20 10:55:48;;;;;;;10.70;5.47;;;;;;;4.95;72.53;99761.21;1705650;82;25960;-79
2022/02/20 10:58:26;;;;;;;6.12;3.12;;;;;;;4.95;72.91;99766.52;1740753;81;26492;-79
2022/02/20 11:00:58;;;;;;;5.87;3.35;;;;;;;4.92;74.49;99761.05;1704079;83;26496;-79
2022/02/20 11:03:29;;;;;;;6.42;4.05;;;;;;;4.87;74.35;99757.27;1725681;82;26021;-79
2022/02/20 11:05:59;;;;;;;8.68;4.30;;;;;;;4.82;75.16;99750.30;1701049;83;28306;-79
2022/02/20 11:08:28;;;;;;;14.05;7.22;;;;;;;4.78;75.19;99754.30;1714293;82;25895;-79
2022/02/20 11:10:56;;;;;;;6.97;3.98;;;;;;;4.80;75.80;99753.14;1705764;82;25532;-79
2022/02/20 11:13:23;;;;;;;5.67;3.83;;;;;;;4.82;75.91;99760.42;1728354;81;25649;-79
2022/02/20 11:15:52;;;;;;;7.87;4.30;;;;;;;4.83;76.42;99757.28;1701872;83;26018;-79
2022/02/20 11:18:24;;;;;;;11.83;6.75;;;;;;;4.82;76.61;99756.45;1710640;82;27457;-79
2022/02/20 11:20:52;;;;;;;6.08;4.58;;;;;;;4.82;77.07;99752.95;1706099;83;26503;-78
2022/02/20 11:23:28;;;;;;;7.25;4.90;;;;;;;4.80;77.12;99762.42;1706459;82;26341;-79
2022/02/20 11:25:57;;;;;;;8.10;4.75;;;;;;;4.78;77.31;99768.89;1717744;82;26591;-78
2022/02/20 11:28:23;;;;;;;8.18;5.85;;;;;;;4.75;77.74;99764.75;1710179;82;25906;-79
2022/02/20 11:30:50;;;;;;;7.90;4.60;;;;;;;4.76;78.22;99770.89;1717951;82;28114;-80
2022/02/20 11:33:17;;;;;;;9.18;6.37;;;;;;;4.74;79.21;99771.55;1709898;82;25932;-79
2022/02/20 11:35:48;;;;;;;8.83;5.00;;;;;;;4.69;78.70;99774.22;1733103;81;25700;-79
2022/02/20 11:38:17;;;;;;;7.70;5.55;;;;;;;4.69;79.42;99766.27;1728490;81;25931;-79
2022/02/20 11:40:58;;;;;;;8.28;4.83;;;;;;;4.69;79.08;99768.08;1732093;81;25909;-78
2022/02/20 11:43:46;;;;;;;6.92;4.53;;;;;;;4.72;80.62;99764.27;1736384;81;28277;-79
2022/02/20 11:46:20;;;;;;;6.60;4.70;;;;;;;4.69;80.31;99770.24;1731343;81;26572;-79
2022/02/20 11:49:16;;;;;;;30.55;14.23;;;;;;;4.69;79.68;99774.22;1706169;82;25843;-79
2022/02/20 11:51:39;;;;;;;11.43;7.78;;;;;;;4.70;79.54;99772.41;1727572;81;25799;-78
2022/02/20 11:54:22;;;;;;;11.63;7.17;;;;;;;4.72;80.02;99773.55;1724486;83;25790;-79
2022/02/20 11:57:19;;;;;;;10.48;6.92;;;;;;;4.72;79.68;99765.10;1728763;81;28290;-79
2022/02/20 12:00:13;;;;;;;21.90;12.68;;;;;;;4.74;80.03;99767.09;1725623;81;26074;-79
2022/02/20 12:03:05;;;;;;;17.70;10.43;;;;;;;4.77;79.66;99779.19;1705424;82;25933;-79
2022/02/20 12:05:35;;;;;;;22.50;10.55;;;;;;;4.80;80.26;99779.67;1736060;81;25950;-80